createdAt,value
2023-05-14T00:01:31.251Z,101356.63
2023-05-14T00:04:03.254Z,101354.59
2023-05-14T00:06:37.095Z,101357.59
2023-05-14T00:09:08.911Z,101352.22
2023-05-14T00:11:40.743Z,101354.41
2023-05-14T00:14:18.144Z,101353.22
2023-05-14T00:16:50.006Z,101348.66
2023-05-14T00:19:21.838Z,101346.66
2023-05-14T00:21:55.160Z,101350.78
2023-05-14T00:24:27.048Z,101349.81
2023-05-14T00:26:58.858Z,101345.03
2023-05-14T00:29:30.861Z,101342.59
2023-05-14T00:32:04.342Z,101338.44
2023-05-14T00:34:36.544Z,101340.28
2023-05-14T00:37:09.866Z,101340.59
2023-05-14T00:39:41.732Z,101335.75
2023-05-14T00:42:13.704Z,101341.22
2023-05-14T00:44:45.499Z,101335.53
2023-05-14T00:47:17.711Z,101333.16
2023-05-14T00:49:50.572Z,101339.88
2023-05-14T00:52:25.406Z,101334.97
2023-05-14T00:54:57.849Z,101334.44
2023-05-14T00:57:29.718Z,101338.63
2023-05-14T01:00:02.930Z,101341.59
2023-05-14T01:02:34.689Z,101350.50
2023-05-14T01:05:08.443Z,101343.75
2023-05-14T01:07:50.527Z,101342.44
2023-05-14T01:10:33.561Z,101339.34
2023-05-14T01:13:14.064Z,101346.88
2023-05-14T01:15:48.541Z,101339.81
2023-05-14T01:18:25.015Z,101340.34
2023-05-14T01:20:57.438Z,101345.69
2023-05-14T01:23:30.613Z,101341.75
2023-05-14T01:26:02.457Z,101340.31
2023-05-14T01:28:39.623Z,101331.34
2023-05-14T01:31:19.748Z,101337.22
2023-05-14T01:33:55.576Z,101336.16
2023-05-14T01:36:28.499Z,101335.13
2023-05-14T01:39:03.622Z,101335.09
2023-05-14T01:41:36.512Z,101335.09
2023-05-14T01:44:09.006Z,101333.31
2023-05-14T01:46:40.706Z,101332.94
2023-05-14T01:49:12.502Z,101328.88
2023-05-14T01:51:44.586Z,101332.56
2023-05-14T01:54:17.516Z,101330.69
2023-05-14T01:56:49.342Z,101323.63
2023-05-14T01:59:21.185Z,101325.81
2023-05-14T02:01:53.164Z,101327.28
2023-05-14T02:04:24.845Z,101328.22
2023-05-14T02:06:56.481Z,101318.66
2023-05-14T02:09:30.630Z,101319.94
2023-05-14T02:12:02.553Z,101321.53
2023-05-14T02:14:34.480Z,101321.22
2023-05-14T02:17:06.363Z,101309.53
2023-05-14T02:19:38.277Z,101323.97
2023-05-14T02:22:11.077Z,101318.13
2023-05-14T02:24:44.217Z,101317.78
2023-05-14T02:27:16.036Z,101312.19
2023-05-14T02:29:47.981Z,101323.81
2023-05-14T02:32:19.821Z,101308.72
2023-05-14T02:34:51.593Z,101313.38
2023-05-14T02:37:23.420Z,101309.41
2023-05-14T02:39:56.705Z,101315.75
2023-05-14T02:42:28.512Z,101313.84
2023-05-14T02:45:00.423Z,101313.06
2023-05-14T02:47:32.333Z,101311.66
2023-05-14T02:50:06.344Z,101318.16
2023-05-14T02:52:37.899Z,101319.00
2023-05-14T02:55:13.308Z,101322.53
2023-05-14T02:57:45.126Z,101314.94
2023-05-14T03:00:17.515Z,101318.50
2023-05-14T03:02:50.030Z,101314.13
2023-05-14T03:05:22.329Z,101312.34
2023-05-14T03:07:54.249Z,101310.91
2023-05-14T03:10:27.961Z,101318.25
2023-05-14T03:12:59.900Z,101316.44
2023-05-14T03:15:31.700Z,101313.63
2023-05-14T03:18:03.617Z,101306.94
2023-05-14T03:20:35.306Z,101310.66
2023-05-14T03:23:07.190Z,101309.97
2023-05-14T03:25:40.154Z,101313.63
2023-05-14T03:28:11.975Z,101306.75
2023-05-14T03:30:43.933Z,101308.75
2023-05-14T03:33:15.729Z,101304.69
2023-05-14T03:35:47.616Z,101302.59
2023-05-14T03:38:19.411Z,101302.88
2023-05-14T03:40:52.478Z,101302.03
2023-05-14T03:43:24.284Z,101297.56
2023-05-14T03:45:56.088Z,101309.66
2023-05-14T03:48:28.114Z,101297.16
2023-05-14T03:50:59.864Z,101299.25
2023-05-14T03:53:31.723Z,101297.84
2023-05-14T03:56:04.737Z,101302.66
2023-05-14T03:58:36.556Z,101298.94
2023-05-14T04:01:08.397Z,101297.25
2023-05-14T04:03:40.329Z,101300.72
2023-05-14T04:06:12.186Z,101305.59
2023-05-14T04:08:44.140Z,101303.53
2023-05-14T04:11:17.415Z,101303.41
2023-05-14T04:13:49.208Z,101306.50
2023-05-14T04:16:21.071Z,101300.72
2023-05-14T04:18:53.077Z,101305.72
2023-05-14T04:21:24.788Z,101309.19
2023-05-14T04:23:56.729Z,101308.19
2023-05-14T04:26:30.210Z,101306.38
2023-05-14T04:29:03.476Z,101307.53
2023-05-14T04:31:35.598Z,101290.91
2023-05-14T04:34:07.401Z,101298.06
2023-05-14T04:36:39.370Z,101295.13
2023-05-14T04:39:12.529Z,101299.22
2023-05-14T04:41:45.997Z,101293.31
2023-05-14T04:44:18.285Z,101300.66
2023-05-14T04:46:50.390Z,101302.72
2023-05-14T04:49:23.331Z,101302.59
2023-05-14T04:51:56.262Z,101298.91
2023-05-14T04:54:28.328Z,101299.44
2023-05-14T04:57:03.275Z,101301.44
2023-05-14T04:59:35.525Z,101293.25
2023-05-14T05:02:07.452Z,101291.84
2023-05-14T05:04:39.613Z,101293.22
2023-05-14T05:07:11.373Z,101288.56
2023-05-14T05:09:43.691Z,101291.22
2023-05-14T05:12:16.855Z,101291.22
2023-05-14T05:14:48.666Z,101291.91
2023-05-14T05:17:20.741Z,101294.84
2023-05-14T05:19:52.569Z,101299.91
2023-05-14T05:22:24.517Z,101297.63
2023-05-14T05:24:56.322Z,101296.47
2023-05-14T05:27:29.525Z,101296.16
2023-05-14T05:30:02.108Z,101299.38
2023-05-14T05:32:33.862Z,101291.75
2023-05-14T05:35:06.543Z,101290.59
2023-05-14T05:37:38.882Z,101286.78
2023-05-14T05:40:14.016Z,101287.31
2023-05-14T05:42:47.759Z,101285.16
2023-05-14T05:45:19.786Z,101291.91
2023-05-14T05:47:51.683Z,101279.91
2023-05-14T05:50:23.813Z,101280.13
2023-05-14T05:52:55.627Z,101288.56
2023-05-14T05:55:27.331Z,101286.25
2023-05-14T05:58:00.270Z,101290.19
2023-05-14T06:00:32.163Z,101292.38
2023-05-14T06:03:04.202Z,101297.19
2023-05-14T06:05:35.895Z,101290.88
2023-05-14T06:08:07.781Z,101292.25
2023-05-14T06:10:39.620Z,101289.63
2023-05-14T06:13:12.959Z,101297.75
2023-05-14T06:15:44.814Z,101289.59
2023-05-14T06:18:16.738Z,101289.13
2023-05-14T06:20:48.535Z,101291.38
2023-05-14T06:23:20.522Z,101287.84
2023-05-14T06:25:52.357Z,101293.59
2023-05-14T06:28:25.336Z,101290.81
2023-05-14T06:30:57.193Z,101294.69
2023-05-14T06:33:31.313Z,101290.38
2023-05-14T06:36:07.869Z,101298.47
2023-05-14T06:38:42.183Z,101288.78
2023-05-14T06:41:13.737Z,101287.59
2023-05-14T06:43:46.925Z,101283.47
2023-05-14T06:46:18.776Z,101273.59
2023-05-14T06:48:50.663Z,101287.22
2023-05-14T06:51:22.451Z,101284.91
2023-05-14T06:53:54.288Z,101283.78
2023-05-14T06:56:26.389Z,101276.72
2023-05-14T06:59:00.202Z,101281.31
2023-05-14T07:01:32.044Z,101280.63
2023-05-14T07:04:03.954Z,101278.09
2023-05-14T07:06:36.121Z,101283.34
2023-05-14T07:09:07.963Z,101279.63
2023-05-14T07:11:39.864Z,101278.31
2023-05-14T07:14:12.857Z,101272.41
2023-05-14T07:16:46.786Z,101264.00
2023-05-14T07:19:18.584Z,101275.44
2023-05-14T07:21:50.969Z,101270.22
2023-05-14T07:24:23.528Z,101271.72
2023-05-14T07:26:57.156Z,101269.53
2023-05-14T07:29:31.167Z,101264.63
2023-05-14T07:32:04.752Z,101263.78
2023-05-14T07:34:36.575Z,101266.97
2023-05-14T07:37:08.354Z,101254.16
2023-05-14T07:39:41.645Z,101260.00
2023-05-14T07:42:21.960Z,101252.59
2023-05-14T07:44:58.238Z,101254.56
2023-05-14T07:47:30.518Z,101254.91
2023-05-14T07:50:02.642Z,101248.66
2023-05-14T07:52:34.483Z,101238.53
2023-05-14T07:55:06.829Z,101241.56
2023-05-14T07:57:38.675Z,101241.91
2023-05-14T08:00:15.917Z,101238.69
2023-05-14T08:02:49.081Z,101235.69
2023-05-14T08:05:21.141Z,101235.78
2023-05-14T08:07:53.001Z,101239.06
2023-05-14T08:10:25.091Z,101235.59
2023-05-14T08:12:57.137Z,101239.28
2023-05-14T08:15:30.223Z,101232.81
2023-05-14T08:18:03.706Z,101236.47
2023-05-14T08:20:35.672Z,101231.06
2023-05-14T08:23:09.239Z,101236.47
2023-05-14T08:25:40.858Z,101236.56
2023-05-14T08:28:12.747Z,101233.16
2023-05-14T08:30:46.025Z,101230.44
2023-05-14T08:33:18.069Z,101229.06
2023-05-14T08:35:51.135Z,101229.72
2023-05-14T08:38:24.623Z,101227.50
2023-05-14T08:41:01.476Z,101225.25
2023-05-14T08:43:55.730Z,101222.16
2023-05-14T08:46:34.007Z,101216.91
2023-05-14T08:49:16.942Z,101219.44
2023-05-14T08:51:51.525Z,101211.94
2023-05-14T08:54:26.200Z,101209.94
2023-05-14T08:56:59.913Z,101199.44
2023-05-14T08:59:33.983Z,101202.94
2023-05-14T09:02:11.140Z,101192.66
2023-05-14T09:04:43.439Z,101193.47
2023-05-14T09:07:15.944Z,101202.31
2023-05-14T09:09:48.360Z,101192.75
2023-05-14T09:12:20.069Z,101193.44
2023-05-14T09:14:53.933Z,101200.41
2023-05-14T09:17:28.569Z,101198.63
2023-05-14T09:20:02.297Z,101195.53
2023-05-14T09:22:35.910Z,101188.09
2023-05-14T09:25:12.002Z,101196.16
2023-05-14T09:27:50.052Z,101195.75
2023-05-14T09:30:21.964Z,101192.50
2023-05-14T09:32:57.092Z,101187.53
2023-05-14T09:35:29.924Z,101182.97
2023-05-14T09:38:01.766Z,101182.59
2023-05-14T09:40:33.625Z,101182.63
2023-05-14T09:43:06.108Z,101172.84
2023-05-14T09:45:37.900Z,101176.47
2023-05-14T09:48:11.364Z,101169.16
2023-05-14T09:50:47.548Z,101165.19
2023-05-14T09:53:22.138Z,101162.69
2023-05-14T09:55:53.722Z,101157.31
2023-05-14T09:58:27.155Z,101158.16
2023-05-14T10:01:02.572Z,101158.59
2023-05-14T10:03:36.241Z,101148.13
2023-05-14T10:06:10.840Z,101148.13
2023-05-14T10:08:49.749Z,101143.09
2023-05-14T10:11:31.502Z,101142.25
2023-05-14T10:14:17.912Z,101137.22
2023-05-14T10:16:54.526Z,101142.19
2023-05-14T10:19:32.111Z,101136.34
2023-05-14T10:22:12.382Z,101134.66
2023-05-14T10:24:45.894Z,101134.44
2023-05-14T10:27:19.711Z,101134.44
2023-05-14T10:29:57.211Z,101127.06
2023-05-14T10:32:33.087Z,101134.16
2023-05-14T10:35:16.714Z,101128.66
2023-05-14T10:37:51.728Z,101117.50
2023-05-14T10:40:26.512Z,101127.69
2023-05-14T10:43:03.577Z,101126.38
2023-05-14T10:45:35.547Z,101117.59
2023-05-14T10:48:07.509Z,101115.44
2023-05-14T10:50:42.957Z,101117.00
2023-05-14T10:53:18.682Z,101120.25
2023-05-14T10:55:55.562Z,101116.38
2023-05-14T10:58:28.384Z,101110.28
2023-05-14T11:01:00.921Z,101120.53
2023-05-14T11:03:40.084Z,101115.47
2023-05-14T11:06:15.889Z,101112.16
2023-05-14T11:08:47.935Z,101104.06
2023-05-14T11:11:20.619Z,101114.88
2023-05-14T11:13:54.443Z,101102.75
2023-05-14T11:16:30.800Z,101103.00
2023-05-14T11:19:08.220Z,101097.53
2023-05-14T11:21:42.036Z,101098.28
2023-05-14T11:24:13.751Z,101100.25
2023-05-14T11:26:48.749Z,101093.47
2023-05-14T11:29:20.687Z,101088.38
2023-05-14T11:31:54.077Z,101090.22
2023-05-14T11:34:25.758Z,101096.47
2023-05-14T11:36:58.998Z,101083.00
2023-05-14T11:39:31.864Z,101077.38
2023-05-14T11:42:05.831Z,101072.50
2023-05-14T11:44:39.920Z,101078.25
2023-05-14T11:47:12.226Z,101070.47
2023-05-14T11:49:43.828Z,101065.31
2023-05-14T11:52:21.773Z,101058.56
2023-05-14T11:54:53.859Z,101050.38
2023-05-14T11:57:26.332Z,101053.34
2023-05-14T12:00:00.510Z,101049.34
2023-05-14T12:02:32.668Z,101043.06
2023-05-14T12:05:07.105Z,101041.66
2023-05-14T12:07:40.200Z,101036.91
2023-05-14T12:10:17.525Z,101043.09
2023-05-14T12:12:52.512Z,101035.63
2023-05-14T12:15:26.705Z,101031.09
2023-05-14T12:17:58.278Z,101026.31
2023-05-14T12:20:33.014Z,101032.72
2023-05-14T12:23:06.045Z,101029.38
2023-05-14T12:25:39.271Z,101015.56
2023-05-14T12:28:20.453Z,101017.31
2023-05-14T12:30:59.192Z,101014.59
2023-05-14T12:33:31.724Z,101005.56
2023-05-14T12:38:41.173Z,101003.63
2023-05-14T12:41:13.171Z,101002.31
2023-05-14T12:43:49.131Z,101000.81
2023-05-14T12:46:20.878Z,100991.09
2023-05-14T12:48:53.470Z,100984.00
2023-05-14T12:51:25.196Z,100987.34
2023-05-14T12:53:58.204Z,100994.19
2023-05-14T12:56:32.012Z,100986.94
2023-05-14T12:59:03.632Z,100980.81
2023-05-14T13:01:35.543Z,100985.44
2023-05-14T13:04:07.987Z,100978.22
2023-05-14T13:06:39.725Z,100970.97
2023-05-14T13:09:13.037Z,100974.78
2023-05-14T13:11:44.680Z,100968.97
2023-05-14T13:14:17.838Z,100958.19
2023-05-14T13:16:52.609Z,100954.31
2023-05-14T13:19:26.606Z,100959.91
2023-05-14T13:21:59.823Z,100964.06
2023-05-14T13:24:32.985Z,100949.41
2023-05-14T13:27:04.859Z,100961.03
2023-05-14T13:29:37.257Z,100955.66
2023-05-14T13:32:12.462Z,100961.63
2023-05-14T13:34:44.968Z,100954.63
2023-05-14T13:37:16.664Z,100962.09
2023-05-14T13:39:51.400Z,100958.22
2023-05-14T13:42:23.626Z,100966.94
2023-05-14T13:44:56.313Z,100970.31
2023-05-14T13:47:29.177Z,100969.19
2023-05-14T13:50:01.809Z,100975.13
2023-05-14T13:52:35.166Z,100973.13
2023-05-14T13:55:10.398Z,100973.94
2023-05-14T13:57:43.092Z,100978.22
2023-05-14T14:00:17.245Z,100981.16
2023-05-14T14:02:50.581Z,100986.03
2023-05-14T14:05:23.759Z,100976.84
2023-05-14T14:08:00.975Z,100976.97
2023-05-14T14:10:42.441Z,100970.81
2023-05-14T14:13:14.470Z,100965.47
2023-05-14T14:15:46.413Z,100963.69
2023-05-14T14:18:19.744Z,100956.41
2023-05-14T14:20:52.976Z,100952.75
2023-05-14T14:23:26.229Z,100944.84
2023-05-14T14:25:59.421Z,100939.72
2023-05-14T14:28:31.456Z,100939.19
2023-05-14T14:31:03.282Z,100939.00
2023-05-14T14:33:35.131Z,100937.13
2023-05-14T14:36:08.051Z,100945.19
2023-05-14T14:38:40.051Z,100930.34
2023-05-14T14:41:13.187Z,100931.19
2023-05-14T14:43:45.354Z,100922.63
2023-05-14T14:46:17.264Z,100920.50
2023-05-14T14:48:49.249Z,100923.53
2023-05-14T14:51:21.086Z,100921.22
2023-05-14T14:53:54.351Z,100917.44
2023-05-14T14:56:27.802Z,100911.03
2023-05-14T14:58:59.644Z,100912.72
2023-05-14T15:01:31.680Z,100910.09
2023-05-14T15:04:03.693Z,100911.41
2023-05-14T15:06:35.310Z,100909.38
2023-05-14T15:09:09.103Z,100917.91
2023-05-14T15:11:43.945Z,100911.19
2023-05-14T15:14:15.765Z,100908.69
2023-05-14T15:16:49.578Z,100904.28
2023-05-14T15:19:22.539Z,100911.88
2023-05-14T15:21:55.006Z,100915.66
2023-05-14T15:24:27.192Z,100912.44
2023-05-14T15:27:00.873Z,100897.91
2023-05-14T15:29:32.962Z,100899.28
2023-05-14T15:32:07.259Z,100906.34
2023-05-14T15:34:39.211Z,100896.84
2023-05-14T15:37:10.894Z,100890.66
2023-05-14T15:39:44.374Z,100887.72
2023-05-14T15:42:17.711Z,100886.31
2023-05-14T15:44:49.622Z,100877.47
2023-05-14T15:47:21.464Z,100875.31
2023-05-14T15:49:53.314Z,100869.78
2023-05-14T15:52:25.217Z,100877.22
2023-05-14T15:54:58.574Z,100869.78
2023-05-14T15:57:31.684Z,100867.34
2023-05-14T16:00:10.660Z,100860.44
2023-05-14T16:02:44.581Z,100861.19
2023-05-14T16:05:18.985Z,100858.16
2023-05-14T16:07:52.827Z,100857.09
2023-05-14T16:10:26.556Z,100847.72
2023-05-14T16:12:59.743Z,100849.38
2023-05-14T16:15:31.674Z,100850.44
2023-05-14T16:18:03.529Z,100840.84
2023-05-14T16:20:35.346Z,100838.03
2023-05-14T16:23:08.665Z,100843.84
2023-05-14T16:25:40.660Z,100838.28
2023-05-14T16:28:14.028Z,100839.06
2023-05-14T16:30:45.902Z,100836.34
2023-05-14T16:33:17.743Z,100839.69
2023-05-14T16:35:50.528Z,100839.06
2023-05-14T16:38:22.388Z,100838.13
2023-05-14T16:40:54.253Z,100836.06
2023-05-14T16:43:27.293Z,100831.53
2023-05-14T16:45:59.302Z,100828.81
2023-05-14T16:48:31.316Z,100825.72
2023-05-14T16:51:02.910Z,100824.28
2023-05-14T16:53:34.804Z,100824.28
2023-05-14T16:56:06.728Z,100822.59
2023-05-14T16:58:41.389Z,100827.38
2023-05-14T17:01:13.073Z,100834.72
2023-05-14T17:03:45.651Z,100819.22
2023-05-14T17:06:17.783Z,100822.16
2023-05-14T17:08:49.660Z,100817.84
2023-05-14T17:11:21.647Z,100824.13
2023-05-14T17:13:54.592Z,100818.88
2023-05-14T17:16:27.099Z,100819.50
2023-05-14T17:18:59.017Z,100819.88
2023-05-14T17:21:30.929Z,100816.88
2023-05-14T17:24:03.753Z,100815.75
2023-05-14T17:26:35.691Z,100818.22
2023-05-14T17:29:08.908Z,100810.66
2023-05-14T17:31:40.768Z,100811.03
2023-05-14T17:34:12.650Z,100812.69
2023-05-14T17:36:44.565Z,100806.78
2023-05-14T17:39:16.452Z,100808.06
2023-05-14T17:41:48.329Z,100808.53
2023-05-14T17:44:21.590Z,100806.94
2023-05-14T17:46:53.528Z,100812.34
2023-05-14T17:49:25.411Z,100810.94
2023-05-14T17:51:57.303Z,100812.59
2023-05-14T17:54:29.120Z,100807.69
2023-05-14T17:57:00.991Z,100812.50
2023-05-14T17:59:34.261Z,100808.59
2023-05-14T18:02:07.517Z,100814.09
2023-05-14T18:04:39.252Z,100811.06
2023-05-14T18:07:11.038Z,100814.09
2023-05-14T18:09:42.869Z,100814.31
2023-05-14T18:12:14.741Z,100820.84
2023-05-14T18:14:47.825Z,100825.69
2023-05-14T18:17:19.659Z,100819.94
2023-05-14T18:19:51.494Z,100820.84
2023-05-14T18:22:23.362Z,100822.78
2023-05-14T18:24:55.298Z,100818.22
2023-05-14T18:27:27.189Z,100828.06
2023-05-14T18:30:00.514Z,100823.13
2023-05-14T18:32:32.377Z,100829.00
2023-05-14T18:35:06.476Z,100825.31
2023-05-14T18:37:40.085Z,100823.25
2023-05-14T18:40:15.752Z,100820.69
2023-05-14T18:42:49.328Z,100817.69
2023-05-14T18:45:24.127Z,100825.03
2023-05-14T18:47:56.051Z,100817.16
2023-05-14T18:50:28.047Z,100817.41
2023-05-14T18:52:59.869Z,100818.88
2023-05-14T18:55:31.708Z,100817.66
2023-05-14T18:58:03.685Z,100827.25
2023-05-14T19:00:37.027Z,100825.66
2023-05-14T19:03:08.806Z,100828.81
2023-05-14T19:05:40.580Z,100825.91
2023-05-14T19:08:12.863Z,100831.41
2023-05-14T19:10:44.777Z,100828.69
2023-05-14T19:13:16.904Z,100827.88
2023-05-14T19:15:50.162Z,100829.13
2023-05-14T19:18:23.756Z,100826.03
2023-05-14T19:20:57.185Z,100831.63
2023-05-14T19:23:32.597Z,100832.06
2023-05-14T19:26:06.835Z,100833.97
2023-05-14T19:28:40.828Z,100831.03
2023-05-14T19:31:13.888Z,100835.00
2023-05-14T19:33:47.166Z,100827.91
2023-05-14T19:36:20.580Z,100841.22
2023-05-14T19:38:53.946Z,100840.59
2023-05-14T19:41:27.744Z,100835.16
2023-05-14T19:44:00.959Z,100831.19
2023-05-14T19:46:33.954Z,100832.22
2023-05-14T19:49:07.271Z,100829.91
2023-05-14T19:51:40.674Z,100819.91
2023-05-14T19:54:14.620Z,100828.56
2023-05-14T19:56:47.919Z,100819.03
2023-05-14T19:59:21.180Z,100823.13
2023-05-14T20:01:54.487Z,100823.94
2023-05-14T20:04:28.152Z,100818.28
2023-05-14T20:07:01.829Z,100818.91
2023-05-14T20:09:35.086Z,100819.28
2023-05-14T20:12:10.766Z,100822.22
2023-05-14T20:14:44.763Z,100824.59
2023-05-14T20:17:17.920Z,100823.94
2023-05-14T20:19:52.195Z,100825.56
2023-05-14T20:22:25.975Z,100816.66
2023-05-14T20:24:59.578Z,100814.34
2023-05-14T20:27:33.065Z,100810.31
2023-05-14T20:30:07.773Z,100813.56
2023-05-14T20:32:41.008Z,100814.81
2023-05-14T20:35:15.312Z,100816.03
2023-05-14T20:37:49.466Z,100818.03
2023-05-14T20:40:23.143Z,100812.94
2023-05-14T20:42:56.688Z,100815.22
2023-05-14T20:45:29.947Z,100801.06
2023-05-14T20:48:06.035Z,100803.59
2023-05-14T20:50:39.572Z,100806.97
2023-05-14T20:53:12.919Z,100802.59
2023-05-14T20:55:46.278Z,100797.53
2023-05-14T20:58:20.391Z,100796.75
2023-05-14T21:00:53.921Z,100794.94
2023-05-14T21:03:27.133Z,100789.34
2023-05-14T21:06:00.560Z,100785.19
2023-05-14T21:08:34.965Z,100783.22
2023-05-14T21:11:08.489Z,100783.19
2023-05-14T21:13:43.801Z,100783.13
2023-05-14T21:16:17.206Z,100777.38
2023-05-14T21:18:50.493Z,100777.28
2023-05-14T21:21:23.724Z,100779.13
2023-05-14T21:23:57.201Z,100782.75
2023-05-14T21:26:36.777Z,100782.13
2023-05-14T21:29:10.506Z,100778.00
2023-05-14T21:31:44.142Z,100773.06
2023-05-14T21:34:17.964Z,100773.19
2023-05-14T21:36:51.329Z,100773.22
2023-05-14T21:39:25.952Z,100780.19
2023-05-14T21:41:59.137Z,100762.41
2023-05-14T21:44:32.379Z,100767.63
2023-05-14T21:47:06.335Z,100760.84
2023-05-14T21:49:39.403Z,100758.81
2023-05-14T21:52:13.307Z,100757.91
2023-05-14T21:54:46.499Z,100755.44
2023-05-14T21:57:20.379Z,100753.38
2023-05-14T21:59:53.644Z,100746.97
2023-05-14T22:02:27.079Z,100748.00
2023-05-14T22:05:00.194Z,100745.06
2023-05-14T22:07:34.027Z,100739.75
2023-05-14T22:10:07.356Z,100741.63
2023-05-14T22:12:40.618Z,100733.59
2023-05-14T22:15:15.460Z,100741.06
2023-05-14T22:17:48.758Z,100741.63
2023-05-14T22:20:22.070Z,100740.53
2023-05-14T22:22:55.526Z,100742.13
2023-05-14T22:25:28.831Z,100735.91
2023-05-14T22:28:02.158Z,100734.50
2023-05-14T22:30:35.415Z,100735.06
2023-05-14T22:33:08.778Z,100725.13
2023-05-14T22:35:41.887Z,100726.97
2023-05-14T22:38:15.089Z,100716.56
2023-05-14T22:40:48.338Z,100716.00
2023-05-14T22:43:21.531Z,100721.88
2023-05-14T22:45:54.845Z,100719.00
2023-05-14T22:48:28.170Z,100719.78
2023-05-14T22:51:01.311Z,100717.56
2023-05-14T22:53:34.518Z,100719.03
2023-05-14T22:56:08.842Z,100711.72
2023-05-14T22:58:42.084Z,100722.63
2023-05-14T23:01:15.410Z,100718.19
2023-05-14T23:03:48.686Z,100713.53
2023-05-14T23:06:21.755Z,100709.84
2023-05-14T23:08:55.003Z,100712.78
2023-05-14T23:11:29.894Z,100709.84
2023-05-14T23:14:03.197Z,100706.13
2023-05-14T23:16:36.592Z,100703.63
2023-05-14T23:19:09.973Z,100706.84
2023-05-14T23:21:43.850Z,100702.41
2023-05-14T23:24:17.083Z,100700.28
2023-05-14T23:26:50.406Z,100699.06
2023-05-14T23:29:23.733Z,100692.00
2023-05-14T23:31:57.140Z,100688.00
2023-05-14T23:34:30.353Z,100686.06
2023-05-14T23:37:03.383Z,100678.34
2023-05-14T23:39:36.734Z,100686.16
2023-05-14T23:42:10.136Z,100679.72
2023-05-14T23:44:43.477Z,100672.50
2023-05-14T23:47:17.191Z,100673.78
2023-05-14T23:49:50.485Z,100666.25
2023-05-14T23:52:23.652Z,100668.28
2023-05-14T23:54:56.945Z,100667.81
2023-05-14T23:57:30.506Z,100657.84
